createdAt,value
2019-01-23T00:01:15.559Z,93972.94
2019-01-23T00:03:41.609Z,93981.56
2019-01-23T00:06:07.603Z,93993.96
2019-01-23T00:08:33.635Z,93957.09
2019-01-23T00:10:59.637Z,93969.08
2019-01-23T00:13:25.631Z,93959.85
2019-01-23T00:15:51.677Z,93968.77
2019-01-23T00:18:17.674Z,93945.20
2019-01-23T00:20:43.672Z,93963.98
2019-01-23T00:23:09.722Z,93965.31
2019-01-23T00:25:35.715Z,93933.45
2019-01-23T00:28:01.707Z,93966.23
2019-01-23T00:30:27.751Z,93949.10
2019-01-23T00:32:53.753Z,93960.49
2019-01-23T00:35:19.749Z,93991.25
2019-01-23T00:37:45.784Z,93962.34
2019-01-23T00:40:11.790Z,93986.30
2019-01-23T00:42:37.844Z,93953.97
2019-01-23T00:45:03.876Z,93959.39
2019-01-23T00:47:29.915Z,93938.60
2019-01-23T00:49:55.950Z,93948.33
2019-01-23T00:52:21.968Z,93930.61
2019-01-23T00:54:48.006Z,93923.45
2019-01-23T00:57:13.998Z,93966.56
2019-01-23T00:59:39.995Z,93936.48
2019-01-23T01:02:06.028Z,93943.00
2019-01-23T01:04:32.030Z,93960.03
2019-01-23T01:06:58.059Z,93925.70
2019-01-23T01:09:24.056Z,93925.70
2019-01-23T01:11:50.062Z,93938.22
2019-01-23T01:14:16.097Z,93942.59
2019-01-23T01:16:42.143Z,93928.48
2019-01-23T01:19:08.145Z,93934.23
2019-01-23T01:21:36.418Z,93935.55
2019-01-23T01:24:02.448Z,93912.10
2019-01-23T01:26:28.446Z,93931.16
2019-01-23T01:28:56.102Z,93936.16
2019-01-23T01:31:20.484Z,93940.98
2019-01-23T01:33:46.520Z,93932.59
2019-01-23T01:36:12.516Z,93920.60
2019-01-23T01:38:38.562Z,93933.91
2019-01-23T01:41:04.600Z,93920.19
2019-01-23T01:43:30.600Z,93911.28
2019-01-23T01:45:56.642Z,93896.77
2019-01-23T01:48:22.640Z,93901.68
2019-01-23T01:50:48.642Z,93922.98
2019-01-23T01:53:14.678Z,93908.44
2019-01-23T01:55:40.677Z,93923.39
2019-01-23T01:58:10.162Z,93914.86
2019-01-23T02:00:32.716Z,93894.20
2019-01-23T02:02:58.717Z,93887.55
2019-01-23T02:05:24.758Z,93881.81
2019-01-23T02:07:50.855Z,93891.13
2019-01-23T02:10:16.851Z,93888.09
2019-01-23T02:12:42.886Z,93894.75
2019-01-23T02:15:08.878Z,93885.02
2019-01-23T02:17:34.879Z,93882.87
2019-01-23T02:20:00.909Z,93889.42
2019-01-23T02:22:26.939Z,93881.02
2019-01-23T02:24:52.937Z,93857.57
2019-01-23T02:27:18.933Z,93868.73
2019-01-23T02:29:44.968Z,93868.35
2019-01-23T02:32:12.005Z,93864.36
2019-01-23T02:34:38.025Z,93884.33
2019-01-23T02:37:04.026Z,93883.38
2019-01-23T02:39:30.062Z,93871.39
2019-01-23T02:41:56.061Z,93878.05
2019-01-23T02:44:22.057Z,93880.20
2019-01-23T02:46:48.104Z,93882.45
2019-01-23T02:49:14.140Z,93903.89
2019-01-23T02:51:40.135Z,93865.28
2019-01-23T02:54:06.183Z,93873.78
2019-01-23T02:56:32.184Z,93882.58
2019-01-23T02:58:58.179Z,93865.79
2019-01-23T03:01:24.217Z,93885.25
2019-01-23T03:03:50.214Z,93883.09
2019-01-23T03:06:16.207Z,93889.75
2019-01-23T03:08:42.243Z,93886.17
2019-01-23T03:11:08.241Z,93866.20
2019-01-23T03:13:34.284Z,93885.34
2019-01-23T03:16:00.311Z,93872.95
2019-01-23T03:18:26.276Z,93871.22
2019-01-23T03:20:52.316Z,93870.94
2019-01-23T03:23:18.310Z,93873.87
2019-01-23T03:25:44.349Z,93880.16
2019-01-23T03:28:10.339Z,93857.21
2019-01-23T03:30:36.346Z,93865.20
2019-01-23T03:33:02.372Z,93864.79
2019-01-23T03:35:28.375Z,93863.36
2019-01-23T03:37:54.415Z,93861.20
2019-01-23T03:40:20.599Z,93843.48
2019-01-23T03:42:46.598Z,93867.99
2019-01-23T03:45:12.646Z,93870.66
2019-01-23T03:47:38.674Z,93856.52
2019-01-23T03:50:04.720Z,93849.36
2019-01-23T03:52:30.733Z,93848.44
2019-01-23T03:54:56.737Z,93839.12
2019-01-23T03:57:22.781Z,93834.30
2019-01-23T03:59:48.819Z,93847.62
2019-01-23T04:02:14.820Z,93826.73
2019-01-23T04:04:40.877Z,93854.78
2019-01-23T04:07:06.918Z,93828.06
2019-01-23T04:09:32.923Z,93853.86
2019-01-23T04:11:58.957Z,93856.66
2019-01-23T04:14:24.995Z,93838.39
2019-01-23T04:16:50.992Z,93850.92
2019-01-23T04:19:17.003Z,93854.38
2019-01-23T04:21:43.321Z,93855.33
2019-01-23T04:24:09.326Z,93857.98
2019-01-23T04:26:35.365Z,93868.63
2019-01-23T04:29:01.418Z,93859.83
2019-01-23T04:31:28.342Z,93876.72
2019-01-23T04:33:54.344Z,93869.56
2019-01-23T04:36:20.393Z,93878.47
2019-01-23T04:38:46.387Z,93866.58
2019-01-23T04:41:12.448Z,93876.31
2019-01-23T04:43:38.481Z,93880.30
2019-01-23T04:46:04.484Z,93879.62
2019-01-23T04:48:30.473Z,93886.27
2019-01-23T04:50:56.512Z,93879.75
2019-01-23T04:53:22.508Z,93880.66
2019-01-23T04:55:48.507Z,93884.25
2019-01-23T04:58:14.541Z,93870.66
2019-01-23T05:00:40.578Z,93884.34
2019-01-23T05:03:06.572Z,93884.34
2019-01-23T05:05:32.616Z,93887.55
2019-01-23T05:07:58.656Z,93873.83
2019-01-23T05:10:24.653Z,93874.88
2019-01-23T05:12:50.911Z,93879.16
2019-01-23T05:15:16.952Z,93876.08
2019-01-23T05:17:42.944Z,93888.57
2019-01-23T05:20:08.971Z,93900.96
2019-01-23T05:22:35.077Z,93894.44
2019-01-23T05:25:01.020Z,93901.09
2019-01-23T05:27:27.061Z,93901.20
2019-01-23T05:29:55.074Z,93907.75
2019-01-23T05:32:19.283Z,93912.16
2019-01-23T05:34:45.284Z,93902.52
2019-01-23T05:37:11.319Z,93877.64
2019-01-23T05:39:37.362Z,93905.19
2019-01-23T05:42:03.393Z,93909.08
2019-01-23T05:44:29.396Z,93887.23
2019-01-23T05:46:55.474Z,93902.70
2019-01-23T05:49:21.547Z,93906.83
2019-01-23T05:51:47.605Z,93881.00
2019-01-23T05:54:13.598Z,93894.26
2019-01-23T05:56:39.638Z,93916.42
2019-01-23T05:59:05.641Z,93896.46
2019-01-23T06:01:31.698Z,93892.98
2019-01-23T06:03:57.723Z,93904.95
2019-01-23T06:06:23.698Z,93912.94
2019-01-23T06:08:49.732Z,93882.33
2019-01-23T06:11:15.735Z,93905.50
2019-01-23T06:13:41.788Z,93914.81
2019-01-23T06:16:07.845Z,93897.61
2019-01-23T06:18:33.847Z,93895.08
2019-01-23T06:20:59.839Z,93885.77
2019-01-23T06:23:25.883Z,93894.13
2019-01-23T06:25:51.887Z,93882.56
2019-01-23T06:28:17.881Z,93876.44
2019-01-23T06:30:43.919Z,93888.02
2019-01-23T06:33:09.920Z,93882.28
2019-01-23T06:35:35.919Z,93872.14
2019-01-23T06:38:01.981Z,93869.48
2019-01-23T06:40:28.092Z,93861.49
2019-01-23T06:42:54.094Z,93870.40
2019-01-23T06:45:20.168Z,93888.24
2019-01-23T06:47:46.197Z,93885.58
2019-01-23T06:50:12.205Z,93858.14
2019-01-23T06:52:38.247Z,93890.49
2019-01-23T06:55:04.240Z,93888.24
2019-01-23T06:57:30.260Z,93863.74
2019-01-23T06:59:56.300Z,93868.28
2019-01-23T07:02:22.300Z,93859.47
2019-01-23T07:04:48.299Z,93890.08
2019-01-23T07:07:14.336Z,93860.39
2019-01-23T07:09:40.331Z,93848.83
2019-01-23T07:12:07.074Z,93874.52
2019-01-23T07:14:33.068Z,93859.06
2019-01-23T07:16:59.075Z,93848.73
2019-01-23T07:19:25.118Z,93861.21
2019-01-23T07:21:51.111Z,93863.97
2019-01-23T07:24:17.130Z,93860.30
2019-01-23T07:26:44.769Z,93864.80
2019-01-23T07:29:27.209Z,93861.31
2019-01-23T07:31:53.382Z,93842.27
2019-01-23T07:34:20.765Z,93872.27
2019-01-23T07:36:45.492Z,93880.90
2019-01-23T07:39:11.532Z,93881.30
2019-01-23T07:41:38.694Z,93876.72
2019-01-23T07:44:03.534Z,93867.25
2019-01-23T07:46:30.357Z,93865.37
2019-01-23T07:48:56.394Z,93881.86
2019-01-23T07:51:22.669Z,93874.41
2019-01-23T07:53:52.008Z,93877.95
2019-01-23T07:56:20.029Z,93872.86
2019-01-23T07:58:44.506Z,93877.88
2019-01-23T08:01:10.711Z,93855.38
2019-01-23T08:03:36.663Z,93889.98
2019-01-23T08:06:02.776Z,93860.42
2019-01-23T08:08:29.087Z,93871.06
2019-01-23T08:10:55.062Z,93872.77
2019-01-23T08:13:21.164Z,93865.43
2019-01-23T08:15:47.297Z,93881.41
2019-01-23T08:18:13.299Z,93854.78
2019-01-23T08:20:39.398Z,93871.67
2019-01-23T08:23:05.877Z,93867.86
2019-01-23T08:25:31.886Z,93873.01
2019-01-23T08:27:58.063Z,93867.53
2019-01-23T08:30:24.454Z,93871.12
2019-01-23T08:32:50.469Z,93875.11
2019-01-23T08:35:16.472Z,93876.03
2019-01-23T08:37:42.639Z,93882.05
2019-01-23T08:40:08.649Z,93871.81
2019-01-23T08:42:34.689Z,93878.05
2019-01-23T08:45:00.685Z,93891.36
2019-01-23T08:47:26.680Z,93887.88
2019-01-23T08:49:52.726Z,93897.84
2019-01-23T08:52:18.723Z,93893.44
2019-01-23T08:54:44.721Z,93888.24
2019-01-23T08:57:10.760Z,93900.22
2019-01-23T08:59:36.835Z,93888.24
2019-01-23T09:02:02.804Z,93893.29
2019-01-23T09:04:28.836Z,93895.64
2019-01-23T09:06:54.831Z,93908.03
2019-01-23T09:09:20.828Z,93877.92
2019-01-23T09:11:46.869Z,93880.59
2019-01-23T09:14:12.897Z,93900.17
2019-01-23T09:16:38.925Z,93890.31
2019-01-23T09:19:05.060Z,93857.17
2019-01-23T09:21:32.063Z,93873.93
2019-01-23T09:23:58.061Z,93867.27
2019-01-23T09:26:24.059Z,93852.02
2019-01-23T09:28:50.613Z,93853.97
2019-01-23T09:31:16.607Z,93855.84
2019-01-23T09:33:42.606Z,93853.97
2019-01-23T09:36:08.648Z,93846.98
2019-01-23T09:38:35.891Z,93843.31
2019-01-23T09:41:01.883Z,93827.58
2019-01-23T09:43:27.931Z,93817.98
2019-01-23T09:45:53.927Z,93821.70
2019-01-23T09:48:19.951Z,93810.64
2019-01-23T09:50:46.415Z,93799.71
2019-01-23T09:53:12.410Z,93786.41
2019-01-23T09:55:38.412Z,93772.38
2019-01-23T09:58:04.545Z,93772.38
2019-01-23T10:00:31.846Z,93774.11
2019-01-23T10:02:56.549Z,93775.17
2019-01-23T10:05:22.594Z,93774.34
2019-01-23T10:07:48.596Z,93785.91
2019-01-23T10:10:14.593Z,93799.77
2019-01-23T10:12:40.650Z,93799.45
2019-01-23T10:15:06.647Z,93797.03
2019-01-23T10:17:32.646Z,93783.72
2019-01-23T10:19:58.691Z,93775.05
2019-01-23T10:22:24.689Z,93749.34
2019-01-23T10:24:50.690Z,93738.30
2019-01-23T10:27:16.730Z,93747.74
2019-01-23T10:29:42.744Z,93740.41
2019-01-23T10:32:08.735Z,93739.48
2019-01-23T10:34:34.780Z,93750.23
2019-01-23T10:37:00.778Z,93739.71
2019-01-23T10:39:26.789Z,93730.50
2019-01-23T10:41:52.833Z,93727.43
2019-01-23T10:44:18.838Z,93702.79
2019-01-23T10:46:44.839Z,93705.96
2019-01-23T10:49:10.879Z,93712.34
2019-01-23T10:51:36.900Z,93719.41
2019-01-23T10:54:02.894Z,93727.38
2019-01-23T10:56:28.940Z,93698.63
2019-01-23T10:58:54.937Z,93676.13
2019-01-23T11:01:20.932Z,93681.97
2019-01-23T11:03:46.977Z,93687.29
2019-01-23T11:06:12.975Z,93710.42
2019-01-23T11:08:38.967Z,93702.06
2019-01-23T11:11:05.023Z,93689.36
2019-01-23T11:13:31.014Z,93691.11
2019-01-23T11:15:57.650Z,93682.20
2019-01-23T11:18:23.067Z,93666.37
2019-01-23T11:20:49.058Z,93674.35
2019-01-23T11:23:15.061Z,93673.94
2019-01-23T11:25:41.112Z,93646.11
2019-01-23T11:28:07.108Z,93657.56
2019-01-23T11:30:33.107Z,93654.50
2019-01-23T11:32:59.177Z,93654.22
2019-01-23T11:35:25.186Z,93650.50
2019-01-23T11:37:51.177Z,93649.41
2019-01-23T11:40:17.241Z,93653.40
2019-01-23T11:42:43.233Z,93650.73
2019-01-23T11:45:09.231Z,93665.38
2019-01-23T11:47:35.275Z,93655.66
2019-01-23T11:50:01.272Z,93644.59
2019-01-23T11:52:27.273Z,93648.08
2019-01-23T11:54:53.306Z,93638.36
2019-01-23T11:57:19.321Z,93637.95
2019-01-23T11:59:45.303Z,93632.62
2019-01-23T12:02:11.360Z,93634.50
2019-01-23T12:04:37.361Z,93633.17
2019-01-23T12:07:03.360Z,93630.09
2019-01-23T12:09:29.417Z,93636.47
2019-01-23T12:11:55.407Z,93643.91
2019-01-23T12:14:21.526Z,93637.26
2019-01-23T12:16:47.643Z,93627.95
2019-01-23T12:19:13.646Z,93616.80
2019-01-23T12:21:39.646Z,93617.61
2019-01-23T12:24:05.733Z,93614.31
2019-01-23T12:26:31.728Z,93615.09
2019-01-23T12:28:57.723Z,93612.16
2019-01-23T12:31:23.771Z,93607.24
2019-01-23T12:33:49.768Z,93612.16
2019-01-23T12:36:15.766Z,93612.98
2019-01-23T12:38:41.819Z,93602.20
2019-01-23T12:41:07.859Z,93606.33
2019-01-23T12:43:33.851Z,93607.28
2019-01-23T12:45:59.888Z,93602.89
2019-01-23T12:48:25.879Z,93594.91
2019-01-23T12:50:51.936Z,93586.92
2019-01-23T12:53:17.932Z,93600.13
2019-01-23T12:55:43.932Z,93598.97
2019-01-23T12:58:09.975Z,93596.98
2019-01-23T13:00:35.968Z,93596.17
2019-01-23T13:03:01.988Z,93597.91
2019-01-23T13:05:28.046Z,93595.77
2019-01-23T13:07:54.040Z,93584.33
2019-01-23T13:10:20.040Z,93580.10
2019-01-23T13:12:46.132Z,93579.28
2019-01-23T13:15:12.186Z,93572.77
2019-01-23T13:17:38.196Z,93565.70
2019-01-23T13:20:04.263Z,93563.04
2019-01-23T13:22:30.263Z,93570.48
2019-01-23T13:24:56.281Z,93573.14
2019-01-23T13:27:22.315Z,93575.42
2019-01-23T13:29:48.312Z,93572.53
2019-01-23T13:32:14.304Z,93560.25
2019-01-23T13:34:40.357Z,93551.98
2019-01-23T13:37:06.357Z,93553.83
2019-01-23T13:39:32.353Z,93554.14
2019-01-23T13:41:58.429Z,93558.50
2019-01-23T13:44:24.422Z,93560.25
2019-01-23T13:46:50.423Z,93548.23
2019-01-23T13:49:16.468Z,93552.03
2019-01-23T13:51:42.471Z,93553.48
2019-01-23T13:54:08.468Z,93548.03
2019-01-23T13:56:34.502Z,93552.71
2019-01-23T13:59:00.497Z,93551.38
2019-01-23T14:01:26.487Z,93556.47
2019-01-23T14:03:52.530Z,93556.84
2019-01-23T14:06:18.528Z,93550.87
2019-01-23T14:08:44.523Z,93550.45
2019-01-23T14:11:10.558Z,93542.88
2019-01-23T14:13:36.566Z,93539.03
2019-01-23T14:16:02.566Z,93534.62
2019-01-23T14:18:28.604Z,93535.95
2019-01-23T14:20:54.595Z,93535.82
2019-01-23T14:23:20.814Z,93531.97
2019-01-23T14:25:46.628Z,93534.62
2019-01-23T14:28:12.640Z,93537.97
2019-01-23T14:30:38.638Z,93534.62
2019-01-23T14:33:04.692Z,93528.76
2019-01-23T14:35:30.686Z,93534.62
2019-01-23T14:38:00.599Z,93532.89
2019-01-23T14:40:22.723Z,93526.88
2019-01-23T14:42:48.716Z,93524.09
2019-01-23T14:45:14.715Z,93521.56
2019-01-23T14:47:40.764Z,93521.97
2019-01-23T14:50:06.774Z,93510.75
2019-01-23T14:52:32.765Z,93506.62
2019-01-23T14:54:58.803Z,93498.63
2019-01-23T14:57:24.813Z,93501.19
2019-01-23T14:59:50.810Z,93511.66
2019-01-23T15:02:16.859Z,93505.83
2019-01-23T15:04:42.850Z,93497.68
2019-01-23T15:07:08.859Z,93502.86
2019-01-23T15:09:34.900Z,93499.42
2019-01-23T15:12:00.896Z,93491.03
2019-01-23T15:14:26.891Z,93494.88
2019-01-23T15:16:53.638Z,93503.27
2019-01-23T15:19:18.935Z,93496.17
2019-01-23T15:21:44.950Z,93499.11
2019-01-23T15:24:10.978Z,93493.92
2019-01-23T15:26:36.971Z,93492.70
2019-01-23T15:29:03.005Z,93478.30
2019-01-23T15:31:29.011Z,93473.52
2019-01-23T15:33:55.014Z,93471.89
2019-01-23T15:36:21.003Z,93469.33
2019-01-23T15:38:47.937Z,93467.19
2019-01-23T15:41:13.055Z,93465.58
2019-01-23T15:43:39.054Z,93461.18
2019-01-23T15:46:05.086Z,93463.95
2019-01-23T15:48:31.170Z,93462.23
2019-01-23T15:50:57.163Z,93470.84
2019-01-23T15:53:23.242Z,93461.14
2019-01-23T15:55:49.227Z,93456.20
2019-01-23T15:58:15.224Z,93464.83
2019-01-23T16:00:41.262Z,93453.27
2019-01-23T16:03:07.255Z,93455.11
2019-01-23T16:05:33.255Z,93462.30
2019-01-23T16:07:59.575Z,93460.97
2019-01-23T16:10:25.578Z,93457.63
2019-01-23T16:12:51.577Z,93458.96
2019-01-23T16:15:17.653Z,93456.00
2019-01-23T16:17:43.651Z,93448.94
2019-01-23T16:20:09.652Z,93453.47
2019-01-23T16:22:35.698Z,93455.20
2019-01-23T16:25:02.150Z,93452.55
2019-01-23T16:27:27.704Z,93454.97
2019-01-23T16:29:53.769Z,93459.75
2019-01-23T16:32:19.768Z,93462.14
2019-01-23T16:34:45.814Z,93457.91
2019-01-23T16:37:11.864Z,93448.70
2019-01-23T16:39:37.858Z,93445.52
2019-01-23T16:42:03.857Z,93450.44
2019-01-23T16:44:29.903Z,93446.86
2019-01-23T16:46:55.909Z,93443.38
2019-01-23T16:49:21.903Z,93435.02
2019-01-23T16:51:51.379Z,93434.61
2019-01-23T16:54:13.941Z,93435.40
2019-01-23T16:56:39.934Z,93431.55
2019-01-23T16:59:05.977Z,93433.15
2019-01-23T17:01:31.975Z,93423.83
2019-01-23T17:03:57.970Z,93425.70
2019-01-23T17:06:24.152Z,93430.08
2019-01-23T17:08:50.144Z,93418.89
2019-01-23T17:11:16.181Z,93429.45
2019-01-23T17:13:46.551Z,93426.39
2019-01-23T17:16:20.935Z,93417.19
2019-01-23T17:18:46.938Z,93401.22
2019-01-23T17:21:13.292Z,93409.61
2019-01-23T17:23:39.619Z,93412.69
2019-01-23T17:26:05.620Z,93407.22
2019-01-23T17:28:31.911Z,93403.13
2019-01-23T17:30:57.897Z,93406.23
2019-01-23T17:33:24.404Z,93405.72
2019-01-23T17:35:53.797Z,93399.72
2019-01-23T17:38:20.615Z,93392.83
2019-01-23T17:41:02.081Z,93396.27
2019-01-23T17:43:32.099Z,93403.33
2019-01-23T17:45:58.103Z,93405.00
2019-01-23T17:48:24.479Z,93387.16
2019-01-23T17:50:52.285Z,93386.00
2019-01-23T17:53:19.159Z,93376.69
2019-01-23T17:55:47.266Z,93372.69
2019-01-23T17:58:18.390Z,93369.11
2019-01-23T18:00:46.256Z,93370.84
2019-01-23T18:03:12.810Z,93362.87
2019-01-23T18:05:39.686Z,93361.95
2019-01-23T18:08:05.686Z,93361.53
2019-01-23T18:10:33.143Z,93375.11
2019-01-23T18:12:59.205Z,93378.59
2019-01-23T18:15:25.526Z,93371.39
2019-01-23T18:17:53.464Z,93368.39
2019-01-23T18:20:20.529Z,93365.73
2019-01-23T18:22:46.639Z,93354.67
2019-01-23T18:25:14.086Z,93352.05
2019-01-23T18:27:41.751Z,93351.42
2019-01-23T18:30:08.234Z,93345.05
2019-01-23T18:32:34.672Z,93341.05
2019-01-23T18:35:00.898Z,93335.48
2019-01-23T18:37:26.935Z,93342.30
2019-01-23T18:39:53.800Z,93344.29
2019-01-23T18:42:23.446Z,93339.75
2019-01-23T18:44:49.666Z,93347.80
2019-01-23T18:47:18.368Z,93351.08
2019-01-23T18:49:46.177Z,93352.55
2019-01-23T18:52:11.396Z,93352.41
2019-01-23T18:54:41.053Z,93353.36
2019-01-23T18:57:08.326Z,93351.48
2019-01-23T18:59:35.209Z,93342.58
2019-01-23T19:02:01.275Z,93329.68
2019-01-23T19:04:29.913Z,93331.69
2019-01-23T19:06:56.103Z,93322.68
2019-01-23T19:09:22.381Z,93307.50
2019-01-23T19:11:51.466Z,93302.55
2019-01-23T19:14:24.270Z,93310.16
2019-01-23T19:16:44.938Z,93301.14
2019-01-23T19:19:11.137Z,93296.74
2019-01-23T19:21:38.073Z,93287.43
2019-01-23T19:24:05.030Z,93300.05
2019-01-23T19:26:37.418Z,93308.31
2019-01-23T19:29:03.628Z,93299.52
2019-01-23T19:31:31.504Z,93300.98
2019-01-23T19:33:58.110Z,93286.34
2019-01-23T19:36:24.417Z,93285.94
2019-01-23T19:38:50.761Z,93282.97
2019-01-23T19:41:20.543Z,93286.96
2019-01-23T19:43:45.190Z,93292.28
2019-01-23T19:46:12.105Z,93273.39
2019-01-23T19:48:38.422Z,93283.52
2019-01-23T19:51:04.705Z,93298.16
2019-01-23T19:53:31.400Z,93292.53
2019-01-23T19:55:58.243Z,93282.84
2019-01-23T19:58:25.147Z,93296.14
2019-01-23T20:00:51.945Z,93281.89
2019-01-23T20:03:20.542Z,93278.84
2019-01-23T20:05:45.323Z,93268.14
2019-01-23T20:08:14.097Z,93270.97
2019-01-23T20:10:42.143Z,93265.55
2019-01-23T20:13:08.292Z,93250.06
2019-01-23T20:15:34.474Z,93247.94
2019-01-23T20:18:00.586Z,93232.95
2019-01-23T20:20:28.178Z,93221.74
2019-01-23T20:22:54.277Z,93211.26
2019-01-23T20:25:20.692Z,93207.27
2019-01-23T20:27:46.845Z,93203.80
2019-01-23T20:30:13.010Z,93199.39
2019-01-23T20:32:39.044Z,93211.91
2019-01-23T20:35:05.218Z,93209.11
2019-01-23T20:37:31.722Z,93209.25
2019-01-23T20:40:00.210Z,93201.38
2019-01-23T20:42:26.116Z,93199.94
2019-01-23T20:44:52.295Z,93196.46
2019-01-23T20:47:18.340Z,93191.03
2019-01-23T20:49:46.772Z,93195.95
2019-01-23T20:52:13.002Z,93208.84
2019-01-23T20:54:39.107Z,93195.95
2019-01-23T20:57:07.115Z,93182.23
2019-01-23T20:59:33.188Z,93172.92
2019-01-23T21:01:59.227Z,93164.02
2019-01-23T21:04:25.410Z,93169.34
2019-01-23T21:06:51.462Z,93170.12
2019-01-23T21:09:17.554Z,93164.42
2019-01-23T21:11:43.959Z,93148.56
2019-01-23T21:14:10.031Z,93155.22
2019-01-23T21:16:36.056Z,93166.67
2019-01-23T21:19:02.114Z,93164.37
2019-01-23T21:21:28.684Z,93145.91
2019-01-23T21:23:55.233Z,93171.32
2019-01-23T21:26:21.268Z,93177.56
2019-01-23T21:28:47.758Z,93154.30
2019-01-23T21:31:13.924Z,93159.72
2019-01-23T21:33:42.194Z,93181.42
2019-01-23T21:36:06.206Z,93166.78
2019-01-23T21:38:32.223Z,93164.27
2019-01-23T21:40:58.738Z,93161.46
2019-01-23T21:43:25.110Z,93157.47
2019-01-23T21:45:51.300Z,93152.28
2019-01-23T21:48:17.429Z,93154.54
2019-01-23T21:50:43.472Z,93170.09
2019-01-23T21:53:09.467Z,93162.38
2019-01-23T21:55:35.469Z,93156.14
2019-01-23T21:58:02.606Z,93157.77
2019-01-23T22:00:28.598Z,93151.49
2019-01-23T22:02:54.718Z,93146.06
2019-01-23T22:05:20.759Z,93147.91
2019-01-23T22:07:46.755Z,93144.08
2019-01-23T22:10:12.753Z,93145.55
2019-01-23T22:12:38.789Z,93143.16
2019-01-23T22:15:04.782Z,93140.09
2019-01-23T22:17:30.846Z,93145.70
2019-01-23T22:19:56.838Z,93148.75
2019-01-23T22:22:22.951Z,93159.28
2019-01-23T22:24:48.882Z,93150.48
2019-01-23T22:27:14.891Z,93146.65
2019-01-23T22:29:40.918Z,93144.13
2019-01-23T22:32:06.919Z,93140.52
2019-01-23T22:34:32.956Z,93137.48
2019-01-23T22:36:58.958Z,93144.40
2019-01-23T22:39:24.952Z,93147.33
2019-01-23T22:41:50.989Z,93152.81
2019-01-23T22:44:17.090Z,93149.63
2019-01-23T22:46:43.041Z,93140.02
2019-01-23T22:49:09.080Z,93126.71
2019-01-23T22:51:35.078Z,93121.69
2019-01-23T22:54:01.075Z,93118.48
2019-01-23T22:56:27.131Z,93118.78
2019-01-23T22:58:53.129Z,93127.69
2019-01-23T23:01:19.128Z,93124.51
2019-01-23T23:03:45.166Z,93126.52
2019-01-23T23:06:11.188Z,93133.41
2019-01-23T23:08:37.254Z,93133.69
2019-01-23T23:11:03.246Z,93132.77
2019-01-23T23:13:29.252Z,93123.03
2019-01-23T23:15:55.294Z,93117.72
2019-01-23T23:18:21.282Z,93117.86
2019-01-23T23:20:47.376Z,93096.56
2019-01-23T23:23:13.403Z,93094.42
2019-01-23T23:25:39.401Z,93095.23
2019-01-23T23:28:05.395Z,93100.66
2019-01-23T23:30:31.592Z,93097.73
2019-01-23T23:32:57.591Z,93095.34
2019-01-23T23:35:23.589Z,93099.34
2019-01-23T23:37:49.637Z,93094.02
2019-01-23T23:40:15.634Z,93080.30
2019-01-23T23:42:41.644Z,93074.05
2019-01-23T23:45:07.682Z,93061.26
2019-01-23T23:47:33.862Z,93051.57
2019-01-23T23:49:59.987Z,93043.96
2019-01-23T23:52:26.020Z,93033.86
2019-01-23T23:54:52.020Z,93024.55
2019-01-23T23:57:18.051Z,93022.81
2019-01-23T23:59:44.050Z,93015.64
